sensor_id;sensor_type;location;lat;lon;timestamp;pressure;altitude;pressure_sealevel;temperature;humidity
70916;BME280;58557;50.982;-3.222;2023-05-22T00:02:24;101489.35;;;17.46;34.92
70916;BME280;58557;50.982;-3.222;2023-05-22T00:04:50;101485.51;;;17.67;34.94
70916;BME280;58557;50.982;-3.222;2023-05-22T00:07:16;101490.23;;;17.58;35.32
70916;BME280;58557;50.982;-3.222;2023-05-22T00:09:41;101496.38;;;16.67;36.23
70916;BME280;58557;50.982;-3.222;2023-05-22T00:12:07;101492.05;;;15.67;37.24
70916;BME280;58557;50.982;-3.222;2023-05-22T00:14:32;101493.90;;;16.41;36.49
70916;BME280;58557;50.982;-3.222;2023-05-22T00:16:57;101491.69;;;16.36;36.79
70916;BME280;58557;50.982;-3.222;2023-05-22T00:19:23;101493.67;;;16.80;35.73
70916;BME280;58557;50.982;-3.222;2023-05-22T00:21:48;101490.45;;;16.97;36.46
70916;BME280;58557;50.982;-3.222;2023-05-22T00:24:14;101488.77;;;16.54;36.60
70916;BME280;58557;50.982;-3.222;2023-05-22T00:26:39;101482.41;;;15.63;37.67
70916;BME280;58557;50.982;-3.222;2023-05-22T00:29:05;101483.89;;;16.11;37.56
70916;BME280;58557;50.982;-3.222;2023-05-22T00:31:30;101484.33;;;16.80;36.39
70916;BME280;58557;50.982;-3.222;2023-05-22T00:33:58;101486.12;;;16.79;35.74
70916;BME280;58557;50.982;-3.222;2023-05-22T00:36:22;101487.09;;;16.04;36.80
70916;BME280;58557;50.982;-3.222;2023-05-22T00:38:47;101489.45;;;16.69;35.70
70916;BME280;58557;50.982;-3.222;2023-05-22T00:41:13;101492.48;;;16.80;35.35
70916;BME280;58557;50.982;-3.222;2023-05-22T00:43:38;101488.82;;;16.67;36.47
70916;BME280;58557;50.982;-3.222;2023-05-22T00:46:03;101486.80;;;16.71;36.04
70916;BME280;58557;50.982;-3.222;2023-05-22T00:48:29;101485.91;;;16.61;36.12
70916;BME280;58557;50.982;-3.222;2023-05-22T00:50:56;101482.14;;;16.31;36.54
70916;BME280;58557;50.982;-3.222;2023-05-22T00:53:20;101485.99;;;16.82;36.02
70916;BME280;58557;50.982;-3.222;2023-05-22T00:55:45;101483.56;;;16.33;36.63
70916;BME280;58557;50.982;-3.222;2023-05-22T00:58:13;101481.27;;;15.88;37.49
70916;BME280;58557;50.982;-3.222;2023-05-22T01:00:36;101478.70;;;15.98;37.32
70916;BME280;58557;50.982;-3.222;2023-05-22T01:03:01;101481.62;;;15.61;38.00
70916;BME280;58557;50.982;-3.222;2023-05-22T01:05:26;101477.30;;;16.00;37.33
70916;BME280;58557;50.982;-3.222;2023-05-22T01:07:52;101478.01;;;16.05;36.95
70916;BME280;58557;50.982;-3.222;2023-05-22T01:10:18;101477.54;;;16.29;37.44
70916;BME280;58557;50.982;-3.222;2023-05-22T01:12:57;101476.85;;;15.31;38.36
70916;BME280;58557;50.982;-3.222;2023-05-22T01:15:16;101477.56;;;15.64;38.15
70916;BME280;58557;50.982;-3.222;2023-05-22T01:17:41;101478.05;;;15.58;38.24
70916;BME280;58557;50.982;-3.222;2023-05-22T01:20:07;101476.69;;;15.93;37.87
70916;BME280;58557;50.982;-3.222;2023-05-22T01:22:36;101476.49;;;15.94;37.68
70916;BME280;58557;50.982;-3.222;2023-05-22T01:25:05;101474.44;;;16.01;37.62
70916;BME280;58557;50.982;-3.222;2023-05-22T01:29:46;101475.98;;;15.70;37.83
70916;BME280;58557;50.982;-3.222;2023-05-22T01:32:09;101479.62;;;15.61;38.16
70916;BME280;58557;50.982;-3.222;2023-05-22T01:34:34;101477.42;;;15.14;39.39
70916;BME280;58557;50.982;-3.222;2023-05-22T01:37:01;101478.20;;;15.49;38.91
70916;BME280;58557;50.982;-3.222;2023-05-22T01:39:26;101475.15;;;15.26;39.33
70916;BME280;58557;50.982;-3.222;2023-05-22T01:41:51;101475.42;;;16.18;38.48
70916;BME280;58557;50.982;-3.222;2023-05-22T01:44:16;101476.28;;;15.37;38.52
70916;BME280;58557;50.982;-3.222;2023-05-22T01:46:41;101475.59;;;15.31;38.60
70916;BME280;58557;50.982;-3.222;2023-05-22T01:49:07;101474.33;;;15.59;38.85
70916;BME280;58557;50.982;-3.222;2023-05-22T01:51:40;101474.50;;;15.72;38.37
70916;BME280;58557;50.982;-3.222;2023-05-22T01:54:03;101473.04;;;15.64;38.43
70916;BME280;58557;50.982;-3.222;2023-05-22T01:56:30;101471.36;;;15.87;38.20
70916;BME280;58557;50.982;-3.222;2023-05-22T01:58:55;101470.61;;;14.74;39.70
70916;BME280;58557;50.982;-3.222;2023-05-22T02:01:18;101467.44;;;15.24;39.30
70916;BME280;58557;50.982;-3.222;2023-05-22T02:03:41;101467.86;;;15.49;38.77
70916;BME280;58557;50.982;-3.222;2023-05-22T02:06:09;101465.32;;;14.92;39.34
70916;BME280;58557;50.982;-3.222;2023-05-22T02:08:33;101468.65;;;15.39;39.42
70916;BME280;58557;50.982;-3.222;2023-05-22T02:10:59;101471.25;;;15.26;39.44
70916;BME280;58557;50.982;-3.222;2023-05-22T02:13:23;101472.28;;;14.57;40.06
70916;BME280;58557;50.982;-3.222;2023-05-22T02:15:49;101472.34;;;14.64;40.02
70916;BME280;58557;50.982;-3.222;2023-05-22T02:18:14;101470.76;;;14.92;40.69
70916;BME280;58557;50.982;-3.222;2023-05-22T02:20:40;101467.49;;;14.22;41.31
70916;BME280;58557;50.982;-3.222;2023-05-22T02:23:05;101470.01;;;14.88;40.65
70916;BME280;58557;50.982;-3.222;2023-05-22T02:25:31;101472.47;;;14.24;42.26
70916;BME280;58557;50.982;-3.222;2023-05-22T02:27:57;101471.29;;;14.60;41.78
70916;BME280;58557;50.982;-3.222;2023-05-22T02:30:22;101471.09;;;14.87;41.85
70916;BME280;58557;50.982;-3.222;2023-05-22T02:32:48;101470.01;;;14.98;40.55
70916;BME280;58557;50.982;-3.222;2023-05-22T02:35:13;101465.00;;;15.22;40.01
70916;BME280;58557;50.982;-3.222;2023-05-22T02:37:38;101464.82;;;15.44;39.76
70916;BME280;58557;50.982;-3.222;2023-05-22T02:40:05;101464.15;;;15.63;38.72
70916;BME280;58557;50.982;-3.222;2023-05-22T02:42:30;101462.39;;;15.43;39.94
70916;BME280;58557;50.982;-3.222;2023-05-22T02:44:55;101462.29;;;15.35;39.71
70916;BME280;58557;50.982;-3.222;2023-05-22T02:47:21;101460.13;;;14.34;40.73
70916;BME280;58557;50.982;-3.222;2023-05-22T02:49:46;101463.08;;;13.75;42.39
70916;BME280;58557;50.982;-3.222;2023-05-22T02:52:12;101465.28;;;13.93;43.03
70916;BME280;58557;50.982;-3.222;2023-05-22T02:54:38;101464.27;;;14.21;42.86
70916;BME280;58557;50.982;-3.222;2023-05-22T02:57:04;101461.47;;;13.79;43.27
70916;BME280;58557;50.982;-3.222;2023-05-22T02:59:28;101462.76;;;13.50;43.85
70916;BME280;58557;50.982;-3.222;2023-05-22T03:01:54;101462.98;;;13.65;44.35
70916;BME280;58557;50.982;-3.222;2023-05-22T03:04:20;101462.07;;;14.58;42.44
70916;BME280;58557;50.982;-3.222;2023-05-22T03:06:46;101461.83;;;14.56;42.48
70916;BME280;58557;50.982;-3.222;2023-05-22T03:09:11;101460.87;;;14.14;42.86
70916;BME280;58557;50.982;-3.222;2023-05-22T03:11:36;101460.36;;;15.43;40.60
70916;BME280;58557;50.982;-3.222;2023-05-22T03:14:01;101457.00;;;15.45;40.69
70916;BME280;58557;50.982;-3.222;2023-05-22T03:16:27;101460.52;;;14.93;40.64
70916;BME280;58557;50.982;-3.222;2023-05-22T03:21:18;101460.55;;;15.02;41.44
70916;BME280;58557;50.982;-3.222;2023-05-22T03:23:43;101459.89;;;15.76;39.63
70916;BME280;58557;50.982;-3.222;2023-05-22T03:26:08;101456.41;;;14.65;41.11
70916;BME280;58557;50.982;-3.222;2023-05-22T03:28:33;101456.50;;;15.83;40.06
70916;BME280;58557;50.982;-3.222;2023-05-22T03:30:59;101453.79;;;14.84;41.12
70916;BME280;58557;50.982;-3.222;2023-05-22T03:33:24;101454.17;;;14.95;41.65
70916;BME280;58557;50.982;-3.222;2023-05-22T03:35:49;101456.51;;;14.49;42.01
70916;BME280;58557;50.982;-3.222;2023-05-22T03:38:15;101458.04;;;15.07;41.98
70916;BME280;58557;50.982;-3.222;2023-05-22T03:40:40;101458.53;;;15.15;41.91
70916;BME280;58557;50.982;-3.222;2023-05-22T03:43:06;101455.27;;;15.47;42.28
70916;BME280;58557;50.982;-3.222;2023-05-22T03:45:31;101456.81;;;14.45;42.75
70916;BME280;58557;50.982;-3.222;2023-05-22T03:47:56;101458.15;;;14.96;42.16
70916;BME280;58557;50.982;-3.222;2023-05-22T03:50:22;101460.31;;;14.78;42.44
70916;BME280;58557;50.982;-3.222;2023-05-22T03:52:48;101460.07;;;15.34;42.11
70916;BME280;58557;50.982;-3.222;2023-05-22T03:55:13;101463.63;;;15.78;41.07
70916;BME280;58557;50.982;-3.222;2023-05-22T03:57:39;101462.69;;;14.89;42.54
70916;BME280;58557;50.982;-3.222;2023-05-22T04:00:06;101461.42;;;14.74;42.87
70916;BME280;58557;50.982;-3.222;2023-05-22T04:02:30;101459.47;;;15.11;42.05
70916;BME280;58557;50.982;-3.222;2023-05-22T04:04:55;101458.62;;;14.78;41.92
70916;BME280;58557;50.982;-3.222;2023-05-22T04:07:20;101460.66;;;14.70;42.96
70916;BME280;58557;50.982;-3.222;2023-05-22T04:09:45;101462.05;;;14.53;44.56
70916;BME280;58557;50.982;-3.222;2023-05-22T04:12:11;101462.71;;;14.38;44.00
70916;BME280;58557;50.982;-3.222;2023-05-22T04:14:36;101465.08;;;14.49;43.40
70916;BME280;58557;50.982;-3.222;2023-05-22T04:17:01;101465.54;;;14.90;42.70
70916;BME280;58557;50.982;-3.222;2023-05-22T04:19:26;101462.18;;;14.76;43.37
70916;BME280;58557;50.982;-3.222;2023-05-22T04:21:52;101464.36;;;15.27;42.22
70916;BME280;58557;50.982;-3.222;2023-05-22T04:24:17;101466.17;;;15.51;41.46
70916;BME280;58557;50.982;-3.222;2023-05-22T04:26:42;101467.47;;;15.12;43.26
70916;BME280;58557;50.982;-3.222;2023-05-22T04:29:08;101465.80;;;14.81;43.50
70916;BME280;58557;50.982;-3.222;2023-05-22T04:31:33;101463.70;;;15.02;43.33
70916;BME280;58557;50.982;-3.222;2023-05-22T04:33:59;101463.44;;;15.16;42.76
70916;BME280;58557;50.982;-3.222;2023-05-22T04:36:24;101470.95;;;15.03;42.57
70916;BME280;58557;50.982;-3.222;2023-05-22T04:38:50;101467.40;;;14.82;43.32
70916;BME280;58557;50.982;-3.222;2023-05-22T04:41:15;101467.25;;;15.19;43.40
70916;BME280;58557;50.982;-3.222;2023-05-22T04:43:41;101470.75;;;15.94;41.87
70916;BME280;58557;50.982;-3.222;2023-05-22T04:46:07;101471.73;;;15.57;42.22
70916;BME280;58557;50.982;-3.222;2023-05-22T04:48:32;101473.13;;;15.54;42.35
70916;BME280;58557;50.982;-3.222;2023-05-22T04:50:57;101476.65;;;15.91;41.01
70916;BME280;58557;50.982;-3.222;2023-05-22T04:53:23;101474.67;;;15.56;42.48
70916;BME280;58557;50.982;-3.222;2023-05-22T04:55:48;101478.76;;;15.40;42.87
70916;BME280;58557;50.982;-3.222;2023-05-22T04:58:13;101478.36;;;15.38;43.32
70916;BME280;58557;50.982;-3.222;2023-05-22T05:00:38;101484.52;;;15.67;42.59
70916;BME280;58557;50.982;-3.222;2023-05-22T05:03:04;101487.30;;;16.38;40.89
70916;BME280;58557;50.982;-3.222;2023-05-22T05:05:29;101482.56;;;16.34;41.14
70916;BME280;58557;50.982;-3.222;2023-05-22T05:07:55;101481.42;;;15.62;41.63
70916;BME280;58557;50.982;-3.222;2023-05-22T05:10:20;101482.49;;;16.02;42.44
70916;BME280;58557;50.982;-3.222;2023-05-22T05:12:46;101481.02;;;16.08;41.93
70916;BME280;58557;50.982;-3.222;2023-05-22T05:15:11;101485.90;;;16.46;41.61
70916;BME280;58557;50.982;-3.222;2023-05-22T05:17:36;101485.78;;;16.20;41.55
70916;BME280;58557;50.982;-3.222;2023-05-22T05:20:02;101492.52;;;16.54;41.69
70916;BME280;58557;50.982;-3.222;2023-05-22T05:22:27;101494.01;;;16.36;40.92
70916;BME280;58557;50.982;-3.222;2023-05-22T05:24:52;101496.69;;;17.21;40.38
70916;BME280;58557;50.982;-3.222;2023-05-22T05:27:18;101494.77;;;16.68;40.81
70916;BME280;58557;50.982;-3.222;2023-05-22T05:29:44;101492.83;;;16.53;41.88
70916;BME280;58557;50.982;-3.222;2023-05-22T05:32:09;101493.51;;;16.14;41.93
70916;BME280;58557;50.982;-3.222;2023-05-22T05:34:35;101493.77;;;16.58;41.76
70916;BME280;58557;50.982;-3.222;2023-05-22T05:37:00;101493.77;;;16.41;42.03
70916;BME280;58557;50.982;-3.222;2023-05-22T05:39:26;101496.33;;;16.21;42.32
70916;BME280;58557;50.982;-3.222;2023-05-22T05:41:51;101497.67;;;16.84;41.03
70916;BME280;58557;50.982;-3.222;2023-05-22T05:44:16;101501.69;;;16.78;41.32
70916;BME280;58557;50.982;-3.222;2023-05-22T05:46:42;101503.62;;;16.72;41.59
70916;BME280;58557;50.982;-3.222;2023-05-22T05:49:09;101504.33;;;16.56;41.18
70916;BME280;58557;50.982;-3.222;2023-05-22T05:51:34;101499.72;;;17.07;40.36
70916;BME280;58557;50.982;-3.222;2023-05-22T05:53:59;101498.62;;;16.27;41.59
70916;BME280;58557;50.982;-3.222;2023-05-22T05:56:25;101500.10;;;17.12;40.49
70916;BME280;58557;50.982;-3.222;2023-05-22T05:58:51;101499.45;;;17.25;39.64
70916;BME280;58557;50.982;-3.222;2023-05-22T06:01:17;101497.67;;;16.30;41.15
70916;BME280;58557;50.982;-3.222;2023-05-22T06:03:42;101499.35;;;16.09;41.83
70916;BME280;58557;50.982;-3.222;2023-05-22T06:06:08;101499.13;;;16.12;42.22
70916;BME280;58557;50.982;-3.222;2023-05-22T06:08:33;101499.44;;;16.12;42.27
70916;BME280;58557;50.982;-3.222;2023-05-22T06:10:59;101504.58;;;16.20;42.47
70916;BME280;58557;50.982;-3.222;2023-05-22T06:13:24;101508.19;;;16.40;42.15
70916;BME280;58557;50.982;-3.222;2023-05-22T06:15:50;101510.62;;;16.50;42.32
70916;BME280;58557;50.982;-3.222;2023-05-22T06:18:15;101512.66;;;16.82;42.12
70916;BME280;58557;50.982;-3.222;2023-05-22T06:20:41;101519.53;;;14.48;45.61
70916;BME280;58557;50.982;-3.222;2023-05-22T06:23:06;101519.62;;;15.55;44.68
70916;BME280;58557;50.982;-3.222;2023-05-22T06:25:32;101523.73;;;16.22;43.98
70916;BME280;58557;50.982;-3.222;2023-05-22T06:27:57;101526.16;;;15.29;45.90
70916;BME280;58557;50.982;-3.222;2023-05-22T06:30:22;101529.36;;;15.63;46.18
70916;BME280;58557;50.982;-3.222;2023-05-22T06:32:48;101532.96;;;15.31;47.11
70916;BME280;58557;50.982;-3.222;2023-05-22T06:35:14;101536.49;;;14.88;48.81
70916;BME280;58557;50.982;-3.222;2023-05-22T06:37:39;101534.74;;;15.20;49.05
70916;BME280;58557;50.982;-3.222;2023-05-22T06:40:06;101538.76;;;14.70;50.55
70916;BME280;58557;50.982;-3.222;2023-05-22T06:42:31;101540.18;;;15.13;50.29
70916;BME280;58557;50.982;-3.222;2023-05-22T06:44:56;101543.45;;;15.06;50.77
70916;BME280;58557;50.982;-3.222;2023-05-22T06:47:22;101546.57;;;15.11;50.60
70916;BME280;58557;50.982;-3.222;2023-05-22T06:49:47;101546.27;;;15.75;49.05
70916;BME280;58557;50.982;-3.222;2023-05-22T06:52:12;101546.58;;;15.62;48.29
70916;BME280;58557;50.982;-3.222;2023-05-22T06:54:37;101549.86;;;15.94;47.91
70916;BME280;58557;50.982;-3.222;2023-05-22T06:57:03;101552.10;;;17.03;45.35
70916;BME280;58557;50.982;-3.222;2023-05-22T06:59:29;101551.45;;;16.67;45.43
70916;BME280;58557;50.982;-3.222;2023-05-22T07:01:54;101552.57;;;16.56;44.91
70916;BME280;58557;50.982;-3.222;2023-05-22T07:04:19;101551.96;;;16.81;44.32
70916;BME280;58557;50.982;-3.222;2023-05-22T07:06:44;101555.52;;;16.80;43.71
70916;BME280;58557;50.982;-3.222;2023-05-22T07:09:10;101561.95;;;17.41;42.59
70916;BME280;58557;50.982;-3.222;2023-05-22T07:11:36;101564.02;;;17.32;43.03
70916;BME280;58557;50.982;-3.222;2023-05-22T07:14:01;101563.00;;;17.80;40.82
70916;BME280;58557;50.982;-3.222;2023-05-22T07:16:26;101558.66;;;16.46;43.17
70916;BME280;58557;50.982;-3.222;2023-05-22T07:18:52;101557.22;;;16.27;44.42
70916;BME280;58557;50.982;-3.222;2023-05-22T07:21:17;101556.69;;;16.49;44.59
70916;BME280;58557;50.982;-3.222;2023-05-22T07:23:43;101555.75;;;15.88;45.13
70916;BME280;58557;50.982;-3.222;2023-05-22T07:26:09;101559.72;;;15.34;47.26
70916;BME280;58557;50.982;-3.222;2023-05-22T07:28:34;101558.03;;;14.47;49.51
70916;BME280;58557;50.982;-3.222;2023-05-22T07:30:59;101559.46;;;15.13;49.24
70916;BME280;58557;50.982;-3.222;2023-05-22T07:33:24;101558.74;;;15.23;48.44
70916;BME280;58557;50.982;-3.222;2023-05-22T07:35:49;101561.22;;;15.53;46.97
70916;BME280;58557;50.982;-3.222;2023-05-22T07:38:15;101556.17;;;16.37;46.27
70916;BME280;58557;50.982;-3.222;2023-05-22T07:40:41;101556.56;;;17.08;44.01
70916;BME280;58557;50.982;-3.222;2023-05-22T07:43:07;101556.69;;;17.18;43.66
70916;BME280;58557;50.982;-3.222;2023-05-22T07:45:32;101559.48;;;17.66;42.31
70916;BME280;58557;50.982;-3.222;2023-05-22T07:47:57;101549.61;;;18.45;39.53
70916;BME280;58557;50.982;-3.222;2023-05-22T07:50:23;101554.28;;;17.04;42.18
70916;BME280;58557;50.982;-3.222;2023-05-22T07:52:48;101551.42;;;17.92;41.92
70916;BME280;58557;50.982;-3.222;2023-05-22T07:55:14;101555.61;;;17.81;41.38
70916;BME280;58557;50.982;-3.222;2023-05-22T07:57:40;101550.25;;;16.85;43.57
70916;BME280;58557;50.982;-3.222;2023-05-22T08:00:06;101555.89;;;17.61;41.57
70916;BME280;58557;50.982;-3.222;2023-05-22T08:02:31;101552.38;;;18.13;40.39
70916;BME280;58557;50.982;-3.222;2023-05-22T08:04:56;101556.00;;;18.09;41.00
70916;BME280;58557;50.982;-3.222;2023-05-22T08:07:22;101551.31;;;18.49;40.16
70916;BME280;58557;50.982;-3.222;2023-05-22T08:09:47;101553.67;;;18.34;40.21
70916;BME280;58557;50.982;-3.222;2023-05-22T08:12:12;101557.20;;;18.85;39.24
70916;BME280;58557;50.982;-3.222;2023-05-22T08:14:38;101563.99;;;17.82;39.99
70916;BME280;58557;50.982;-3.222;2023-05-22T08:17:04;101558.70;;;18.55;39.31
70916;BME280;58557;50.982;-3.222;2023-05-22T08:19:29;101555.73;;;18.74;37.97
70916;BME280;58557;50.982;-3.222;2023-05-22T08:21:55;101556.39;;;18.89;37.84
70916;BME280;58557;50.982;-3.222;2023-05-22T08:24:20;101554.47;;;20.11;36.42
70916;BME280;58557;50.982;-3.222;2023-05-22T08:26:45;101552.80;;;18.60;38.09
70916;BME280;58557;50.982;-3.222;2023-05-22T08:29:11;101550.39;;;19.80;36.71
70916;BME280;58557;50.982;-3.222;2023-05-22T08:31:36;101548.37;;;19.50;36.90
70916;BME280;58557;50.982;-3.222;2023-05-22T08:34:01;101551.73;;;18.99;38.17
70916;BME280;58557;50.982;-3.222;2023-05-22T08:36:28;101552.38;;;19.34;37.70
70916;BME280;58557;50.982;-3.222;2023-05-22T08:38:53;101552.65;;;19.40;35.36
70916;BME280;58557;50.982;-3.222;2023-05-22T08:41:18;101551.62;;;18.66;35.34
70916;BME280;58557;50.982;-3.222;2023-05-22T08:43:44;101551.69;;;19.70;34.44
70916;BME280;58557;50.982;-3.222;2023-05-22T08:46:09;101551.29;;;19.56;33.84
70916;BME280;58557;50.982;-3.222;2023-05-22T08:48:36;101555.83;;;19.58;34.19
70916;BME280;58557;50.982;-3.222;2023-05-22T08:51:02;101557.66;;;20.28;32.83
70916;BME280;58557;50.982;-3.222;2023-05-22T08:53:27;101563.65;;;21.78;30.78
70916;BME280;58557;50.982;-3.222;2023-05-22T08:55:52;101563.66;;;21.63;31.07
70916;BME280;58557;50.982;-3.222;2023-05-22T08:58:18;101565.65;;;19.21;33.74
70916;BME280;58557;50.982;-3.222;2023-05-22T09:00:43;101566.28;;;18.18;35.19
70916;BME280;58557;50.982;-3.222;2023-05-22T09:03:08;101566.11;;;19.43;34.59
70916;BME280;58557;50.982;-3.222;2023-05-22T09:05:34;101567.75;;;19.24;33.40
70916;BME280;58557;50.982;-3.222;2023-05-22T09:07:59;101569.57;;;19.18;32.81
70916;BME280;58557;50.982;-3.222;2023-05-22T09:10:25;101576.43;;;19.18;33.07
70916;BME280;58557;50.982;-3.222;2023-05-22T09:12:59;101580.46;;;18.59;33.85
70916;BME280;58557;50.982;-3.222;2023-05-22T09:15:16;101577.13;;;18.29;34.63
70916;BME280;58557;50.982;-3.222;2023-05-22T09:17:42;101585.27;;;18.22;34.29
70916;BME280;58557;50.982;-3.222;2023-05-22T09:20:08;101584.44;;;18.45;34.37
70916;BME280;58557;50.982;-3.222;2023-05-22T09:22:35;101586.52;;;18.62;34.17
70916;BME280;58557;50.982;-3.222;2023-05-22T09:24:58;101585.14;;;18.73;34.28
70916;BME280;58557;50.982;-3.222;2023-05-22T09:27:24;101582.20;;;19.27;33.91
70916;BME280;58557;50.982;-3.222;2023-05-22T09:29:50;101585.78;;;19.88;32.87
70916;BME280;58557;50.982;-3.222;2023-05-22T09:32:15;101582.14;;;19.77;32.20
70916;BME280;58557;50.982;-3.222;2023-05-22T09:34:40;101581.37;;;18.84;33.74
70916;BME280;58557;50.982;-3.222;2023-05-22T09:37:06;101577.14;;;18.79;33.99
70916;BME280;58557;50.982;-3.222;2023-05-22T09:39:37;101580.48;;;18.69;33.65
70916;BME280;58557;50.982;-3.222;2023-05-22T09:42:00;101574.93;;;18.26;34.93
70916;BME280;58557;50.982;-3.222;2023-05-22T09:44:23;101575.57;;;18.01;34.58
70916;BME280;58557;50.982;-3.222;2023-05-22T09:46:48;101572.13;;;18.78;33.21
70916;BME280;58557;50.982;-3.222;2023-05-22T09:49:14;101567.73;;;18.96;33.15
70916;BME280;58557;50.982;-3.222;2023-05-22T09:51:39;101564.92;;;19.15;32.88
70916;BME280;58557;50.982;-3.222;2023-05-22T09:54:07;101561.33;;;19.14;32.81
70916;BME280;58557;50.982;-3.222;2023-05-22T09:56:31;101562.79;;;20.23;32.54
70916;BME280;58557;50.982;-3.222;2023-05-22T09:58:56;101563.67;;;20.30;32.48
70916;BME280;58557;50.982;-3.222;2023-05-22T10:01:22;101564.39;;;19.22;32.85
70916;BME280;58557;50.982;-3.222;2023-05-22T10:03:50;101564.56;;;19.01;33.59
70916;BME280;58557;50.982;-3.222;2023-05-22T10:06:13;101564.84;;;19.72;33.22
70916;BME280;58557;50.982;-3.222;2023-05-22T10:08:42;101565.08;;;19.06;33.32
70916;BME280;58557;50.982;-3.222;2023-05-22T10:11:04;101560.44;;;18.92;33.42
70916;BME280;58557;50.982;-3.222;2023-05-22T10:13:30;101564.34;;;19.28;33.78
70916;BME280;58557;50.982;-3.222;2023-05-22T10:15:56;101565.65;;;19.00;35.12
70916;BME280;58557;50.982;-3.222;2023-05-22T10:18:21;101563.29;;;19.22;33.34
70916;BME280;58557;50.982;-3.222;2023-05-22T10:20:47;101561.64;;;20.17;32.84
70916;BME280;58557;50.982;-3.222;2023-05-22T10:23:13;101555.50;;;19.68;32.85
70916;BME280;58557;50.982;-3.222;2023-05-22T10:25:38;101554.36;;;19.54;33.59
70916;BME280;58557;50.982;-3.222;2023-05-22T10:28:05;101552.73;;;20.16;33.67
70916;BME280;58557;50.982;-3.222;2023-05-22T10:30:33;101550.72;;;19.63;33.50
70916;BME280;58557;50.982;-3.222;2023-05-22T10:32:59;101554.21;;;18.95;34.85
70916;BME280;58557;50.982;-3.222;2023-05-22T10:35:23;101553.71;;;19.10;34.24
70916;BME280;58557;50.982;-3.222;2023-05-22T10:37:48;101550.46;;;19.87;33.73
70916;BME280;58557;50.982;-3.222;2023-05-22T10:40:13;101543.65;;;18.74;34.51
70916;BME280;58557;50.982;-3.222;2023-05-22T10:42:37;101552.39;;;18.68;34.26
70916;BME280;58557;50.982;-3.222;2023-05-22T10:45:05;101541.85;;;18.64;33.77
70916;BME280;58557;50.982;-3.222;2023-05-22T10:47:27;101548.97;;;19.05;33.19
70916;BME280;58557;50.982;-3.222;2023-05-22T10:50:01;101552.80;;;19.76;32.29
70916;BME280;58557;50.982;-3.222;2023-05-22T10:52:19;101547.70;;;20.48;31.76
70916;BME280;58557;50.982;-3.222;2023-05-22T10:54:45;101545.50;;;19.49;32.33
70916;BME280;58557;50.982;-3.222;2023-05-22T10:57:10;101543.16;;;19.86;32.43
70916;BME280;58557;50.982;-3.222;2023-05-22T10:59:34;101541.72;;;20.45;32.47
70916;BME280;58557;50.982;-3.222;2023-05-22T11:02:00;101543.21;;;20.96;31.69
70916;BME280;58557;50.982;-3.222;2023-05-22T11:04:25;101539.03;;;21.38;30.44
70916;BME280;58557;50.982;-3.222;2023-05-22T11:09:19;101530.19;;;20.51;31.39
70916;BME280;58557;50.982;-3.222;2023-05-22T11:11:42;101530.66;;;20.45;33.07
70916;BME280;58557;50.982;-3.222;2023-05-22T11:14:10;101523.19;;;19.40;35.25
70916;BME280;58557;50.982;-3.222;2023-05-22T11:16:33;101525.57;;;20.24;33.42
70916;BME280;58557;50.982;-3.222;2023-05-22T11:19:04;101521.58;;;20.11;33.64
70916;BME280;58557;50.982;-3.222;2023-05-22T11:21:28;101523.09;;;19.89;34.98
70916;BME280;58557;50.982;-3.222;2023-05-22T11:23:50;101521.93;;;20.41;33.68
70916;BME280;58557;50.982;-3.222;2023-05-22T11:26:18;101523.95;;;21.05;33.22
70916;BME280;58557;50.982;-3.222;2023-05-22T11:28:41;101521.91;;;20.81;32.09
70916;BME280;58557;50.982;-3.222;2023-05-22T11:31:07;101525.39;;;20.52;33.11
70916;BME280;58557;50.982;-3.222;2023-05-22T11:33:32;101523.16;;;19.63;34.06
70916;BME280;58557;50.982;-3.222;2023-05-22T11:35:58;101524.11;;;20.55;34.34
70916;BME280;58557;50.982;-3.222;2023-05-22T11:38:25;101532.17;;;19.76;34.32
70916;BME280;58557;50.982;-3.222;2023-05-22T11:40:51;101525.62;;;19.43;35.04
70916;BME280;58557;50.982;-3.222;2023-05-22T11:43:13;101532.69;;;19.59;35.64
70916;BME280;58557;50.982;-3.222;2023-05-22T11:45:39;101533.94;;;19.51;35.07
70916;BME280;58557;50.982;-3.222;2023-05-22T11:48:04;101535.43;;;19.57;35.31
70916;BME280;58557;50.982;-3.222;2023-05-22T11:50:30;101527.94;;;19.25;35.51
70916;BME280;58557;50.982;-3.222;2023-05-22T11:52:56;101531.00;;;19.46;35.15
70916;BME280;58557;50.982;-3.222;2023-05-22T11:55:22;101530.25;;;20.11;34.03
70916;BME280;58557;50.982;-3.222;2023-05-22T11:57:47;101533.46;;;21.58;32.85
70916;BME280;58557;50.982;-3.222;2023-05-22T12:00:13;101532.21;;;21.10;33.01
70916;BME280;58557;50.982;-3.222;2023-05-22T12:02:43;101531.10;;;21.38;33.05
70916;BME280;58557;50.982;-3.222;2023-05-22T12:05:04;101537.00;;;21.00;32.98
70916;BME280;58557;50.982;-3.222;2023-05-22T12:07:29;101527.41;;;21.00;32.85
70916;BME280;58557;50.982;-3.222;2023-05-22T12:09:55;101526.52;;;21.44;32.95
70916;BME280;58557;50.982;-3.222;2023-05-22T12:12:21;101529.57;;;20.65;33.75
70916;BME280;58557;50.982;-3.222;2023-05-22T12:14:46;101531.51;;;20.28;33.76
70916;BME280;58557;50.982;-3.222;2023-05-22T12:17:12;101515.38;;;20.69;33.20
70916;BME280;58557;50.982;-3.222;2023-05-22T12:19:39;101524.66;;;20.05;34.30
70916;BME280;58557;50.982;-3.222;2023-05-22T12:22:03;101529.23;;;20.67;34.30
70916;BME280;58557;50.982;-3.222;2023-05-22T12:24:38;101526.23;;;20.84;33.17
70916;BME280;58557;50.982;-3.222;2023-05-22T12:26:54;101524.16;;;19.84;35.83
70916;BME280;58557;50.982;-3.222;2023-05-22T12:29:21;101524.58;;;19.82;36.94
70916;BME280;58557;50.982;-3.222;2023-05-22T12:31:44;101517.12;;;19.91;35.83
70916;BME280;58557;50.982;-3.222;2023-05-22T12:34:10;101516.43;;;19.80;35.79
70916;BME280;58557;50.982;-3.222;2023-05-22T12:36:38;101517.71;;;20.43;35.84
70916;BME280;58557;50.982;-3.222;2023-05-22T12:39:00;101509.31;;;19.55;35.81